Coppell, Texas
Current Conditions -  °F | °C
As of 11:53 AM on Friday 21 Nov 2014 (Local Time) from KDFW Reporting Station
Haze Haze  
Wind Chill: 64°   Ceiling: 1000
Heat Index: 64°   Visibility: 6mi
Dew Point: 60°   Wind: 14mph
Humidity: 87%   Direction: 180°S
Pressure: 30.1"   Gusts: NA
Location:  32.98°N, 96.99°W
Report Text: KDFW 211753Z 18012KT 6SM BR BKN010 OVC015 18/16 A3010 RMK AO2 SLP187 T01780156 10178 20144 58006
Loading
Personal Weather Stations






























Interactive Weather Map New forecast layout! Learn more

10-Day Weather Forecast

Advertisements
Track Severe Weather on mobile